createdAt,value
2019-05-18T00:00:02.188Z,95594.81
2019-05-18T00:01:11.071Z,95598.56
2019-05-18T00:02:19.054Z,95602.45
2019-05-18T00:03:26.281Z,95602.31
2019-05-18T00:04:35.339Z,95605.89
2019-05-18T00:05:42.532Z,95601.47
2019-05-18T00:06:50.477Z,95601.78
2019-05-18T00:07:57.718Z,95605.52
2019-05-18T00:09:06.999Z,95601.45
2019-05-18T00:10:14.750Z,95595.09
2019-05-18T00:11:22.729Z,95595.41
2019-05-18T00:12:31.543Z,95595.56
2019-05-18T00:13:39.532Z,95597.66
2019-05-18T00:14:46.730Z,95596.52
2019-05-18T00:15:54.681Z,95595.06
2019-05-18T00:17:01.888Z,95592.61
2019-05-18T00:18:09.844Z,95587.70
2019-05-18T00:19:18.528Z,95596.01
2019-05-18T00:20:26.490Z,95590.28
2019-05-18T00:21:33.698Z,95594.05
2019-05-18T00:22:41.644Z,95596.48
2019-05-18T00:23:48.839Z,95592.23
2019-05-18T00:24:56.815Z,95588.48
2019-05-18T00:26:04.192Z,95588.78
2019-05-18T00:27:12.827Z,95590.57
2019-05-18T00:28:20.025Z,95593.33
2019-05-18T00:29:29.054Z,95594.30
2019-05-18T00:30:36.349Z,95588.61
2019-05-18T00:31:44.402Z,95584.85
2019-05-18T00:32:51.897Z,95588.91
2019-05-18T00:33:59.850Z,95587.77
2019-05-18T00:35:07.763Z,95580.25
2019-05-18T00:36:15.722Z,95579.92
2019-05-18T00:37:22.931Z,95583.50
2019-05-18T00:38:30.918Z,95579.92
2019-05-18T00:39:38.137Z,95584.44
2019-05-18T00:40:46.086Z,95585.41
2019-05-18T00:41:53.290Z,95584.25
2019-05-18T00:43:01.243Z,95587.83
2019-05-18T00:44:08.461Z,95585.05
2019-05-18T00:45:17.759Z,95582.29
2019-05-18T00:46:24.995Z,95581.95
2019-05-18T00:47:41.304Z,95581.29
2019-05-18T00:48:41.821Z,95579.32
2019-05-18T00:49:49.795Z,95577.84
2019-05-18T00:50:57.029Z,95574.90
2019-05-18T00:52:05.274Z,95576.84
2019-05-18T00:53:12.463Z,95579.11
2019-05-18T00:54:20.443Z,95578.80
2019-05-18T00:55:27.635Z,95578.95
2019-05-18T00:56:35.600Z,95574.72
2019-05-18T00:57:42.822Z,95575.69
2019-05-18T00:58:50.813Z,95573.56
2019-05-18T00:59:58.039Z,95570.30
2019-05-18T01:01:05.971Z,95562.30
2019-05-18T01:02:13.193Z,95571.41
2019-05-18T01:03:21.172Z,95572.86
2019-05-18T01:04:28.369Z,95570.89
2019-05-18T01:05:38.163Z,95561.62
2019-05-18T01:06:45.309Z,95568.62
2019-05-18T01:07:53.255Z,95564.05
2019-05-18T01:09:00.479Z,95564.20
2019-05-18T01:10:10.943Z,95564.34
2019-05-18T01:11:18.177Z,95559.77
2019-05-18T01:12:26.133Z,95556.02
2019-05-18T01:13:33.358Z,95560.11
2019-05-18T01:14:41.337Z,95557.80
2019-05-18T01:15:48.528Z,95555.69
2019-05-18T01:16:56.538Z,95555.02
2019-05-18T01:18:03.738Z,95557.77
2019-05-18T01:19:11.678Z,95556.13
2019-05-18T01:20:19.908Z,95559.37
2019-05-18T01:21:27.852Z,95552.05
2019-05-18T01:22:35.082Z,95553.19
2019-05-18T01:23:43.038Z,95553.00
2019-05-18T01:24:50.266Z,95553.16
2019-05-18T01:25:58.246Z,95546.46
2019-05-18T01:27:05.469Z,95552.30
2019-05-18T01:28:13.430Z,95556.34
2019-05-18T01:29:20.652Z,95546.09
2019-05-18T01:30:28.703Z,95550.17
2019-05-18T01:31:35.944Z,95544.30
2019-05-18T01:32:43.920Z,95548.02
2019-05-18T01:33:51.129Z,95548.98
2019-05-18T01:34:59.077Z,95553.84
2019-05-18T01:36:06.306Z,95549.28
2019-05-18T01:37:14.292Z,95551.69
2019-05-18T01:38:21.503Z,95548.45
2019-05-18T01:39:29.465Z,95546.62
2019-05-18T01:40:36.674Z,95546.10
2019-05-18T01:41:44.662Z,95543.61
2019-05-18T01:42:52.057Z,95547.36
2019-05-18T01:43:59.974Z,95542.79
2019-05-18T01:45:16.225Z,95545.87
2019-05-18T01:46:18.354Z,95544.05
2019-05-18T01:47:26.735Z,95541.11
2019-05-18T01:48:34.697Z,95546.27
2019-05-18T01:49:41.959Z,95542.69
2019-05-18T01:50:49.895Z,95541.53
2019-05-18T01:51:57.340Z,95542.16
2019-05-18T01:53:05.328Z,95542.45
2019-05-18T01:54:12.548Z,95539.52
2019-05-18T01:55:20.555Z,95534.95
2019-05-18T01:56:27.779Z,95536.42
2019-05-18T01:57:35.768Z,95540.80
2019-05-18T01:58:42.979Z,95535.75
2019-05-18T01:59:50.958Z,95538.98
2019-05-18T02:00:58.169Z,95536.86
2019-05-18T02:02:06.126Z,95535.70
2019-05-18T02:03:13.847Z,95532.77
2019-05-18T02:04:21.822Z,95537.15
2019-05-18T02:05:29.050Z,95536.00
2019-05-18T02:06:37.024Z,95531.42
2019-05-18T02:07:44.415Z,95534.50
2019-05-18T02:08:52.394Z,95534.20
2019-05-18T02:09:59.617Z,95532.23
2019-05-18T02:11:07.852Z,95534.97
2019-05-18T02:12:15.065Z,95533.00
2019-05-18T02:13:23.004Z,95530.06
2019-05-18T02:14:30.215Z,95532.80
2019-05-18T02:15:38.165Z,95535.21
2019-05-18T02:16:45.401Z,95530.67
2019-05-18T02:17:53.365Z,95530.14
2019-05-18T02:19:00.544Z,95528.16
2019-05-18T02:20:08.907Z,95527.16
2019-05-18T02:21:16.184Z,95526.48
2019-05-18T02:22:24.139Z,95520.78
2019-05-18T02:23:31.351Z,95522.22
2019-05-18T02:24:39.280Z,95523.33
2019-05-18T02:25:46.506Z,95522.17
2019-05-18T02:26:54.524Z,95518.56
2019-05-18T02:28:02.728Z,95518.70
2019-05-18T02:29:10.672Z,95517.23
2019-05-18T02:30:19.897Z,95519.98
2019-05-18T02:31:27.855Z,95519.64
2019-05-18T02:32:35.090Z,95515.55
2019-05-18T02:33:43.050Z,95515.22
2019-05-18T02:34:50.287Z,95509.68
2019-05-18T02:35:58.249Z,95508.86
2019-05-18T02:37:05.650Z,95510.64
2019-05-18T02:38:17.263Z,95515.36
2019-05-18T02:39:24.479Z,95512.42
2019-05-18T02:40:32.440Z,95512.91
2019-05-18T02:41:39.648Z,95517.28
2019-05-18T02:42:47.625Z,95507.37
2019-05-18T02:43:54.825Z,95508.36
2019-05-18T02:45:02.782Z,95507.84
2019-05-18T02:46:10.010Z,95510.14
2019-05-18T02:47:17.972Z,95510.63
2019-05-18T02:48:25.179Z,95510.28
2019-05-18T02:49:34.205Z,95511.09
2019-05-18T02:50:41.436Z,95509.94
2019-05-18T02:51:49.417Z,95511.38
2019-05-18T02:52:56.599Z,95507.48
2019-05-18T02:54:04.576Z,95507.62
2019-05-18T02:55:12.193Z,95504.22
2019-05-18T02:56:20.147Z,95503.73
2019-05-18T02:57:27.444Z,95502.58
2019-05-18T02:58:35.405Z,95503.87
2019-05-18T02:59:42.614Z,95508.11
2019-05-18T03:00:50.766Z,95509.07
2019-05-18T03:01:57.976Z,95507.77
2019-05-18T03:03:05.940Z,95502.72
2019-05-18T03:04:13.154Z,95512.63
2019-05-18T03:05:21.261Z,95507.44
2019-05-18T03:06:28.477Z,95507.77
2019-05-18T03:07:36.444Z,95511.67
2019-05-18T03:08:43.773Z,95509.07
2019-05-18T03:09:52.683Z,95508.11
2019-05-18T03:10:59.907Z,95513.78
2019-05-18T03:12:07.869Z,95513.64
2019-05-18T03:13:15.065Z,95511.19
2019-05-18T03:14:23.104Z,95514.60
2019-05-18T03:15:30.319Z,95511.53
2019-05-18T03:16:38.270Z,95505.03
2019-05-18T03:17:45.483Z,95507.15
2019-05-18T03:19:07.351Z,95509.41
2019-05-18T03:20:02.392Z,95513.30
2019-05-18T03:21:11.312Z,95511.19
2019-05-18T03:22:18.538Z,95509.07
2019-05-18T03:23:26.745Z,95512.63
2019-05-18T03:24:33.973Z,95514.03
2019-05-18T03:25:41.915Z,95511.92
2019-05-18T03:26:49.135Z,95508.98
2019-05-18T03:27:57.206Z,95514.49
2019-05-18T03:29:04.414Z,95514.97
2019-05-18T03:30:13.282Z,95515.94
2019-05-18T03:31:21.563Z,95509.24
2019-05-18T03:32:29.537Z,95511.02
2019-05-18T03:33:36.753Z,95515.73
2019-05-18T03:34:44.701Z,95515.39
2019-05-18T03:35:51.931Z,95514.09
2019-05-18T03:36:59.978Z,95515.88
2019-05-18T03:38:07.196Z,95514.23
2019-05-18T03:39:15.160Z,95512.13
2019-05-18T03:40:22.370Z,95517.45
2019-05-18T03:41:30.362Z,95515.20
2019-05-18T03:42:37.599Z,95514.04
2019-05-18T03:43:45.580Z,95514.52
2019-05-18T03:44:52.814Z,95514.04
2019-05-18T03:46:00.772Z,95511.92
2019-05-18T03:47:07.961Z,95516.30
2019-05-18T03:48:15.923Z,95515.00
2019-05-18T03:49:27.520Z,95514.21
2019-05-18T03:50:32.798Z,95510.31
2019-05-18T03:51:40.025Z,95517.77
2019-05-18T03:52:47.993Z,95509.64
2019-05-18T03:53:55.197Z,95512.72
2019-05-18T03:55:03.180Z,95519.69
2019-05-18T03:56:10.487Z,95514.97
2019-05-18T03:57:18.432Z,95513.67
2019-05-18T03:58:25.657Z,95511.56
2019-05-18T03:59:33.623Z,95519.83
2019-05-18T04:00:40.861Z,95514.30
2019-05-18T04:01:48.843Z,95519.48
2019-05-18T04:02:56.046Z,95514.44
2019-05-18T04:04:04.007Z,95516.69
2019-05-18T04:05:11.270Z,95512.13
2019-05-18T04:06:19.228Z,95515.20
2019-05-18T04:07:26.421Z,95514.55
2019-05-18T04:08:34.367Z,95515.84
2019-05-18T04:09:41.584Z,95517.14
2019-05-18T04:10:49.551Z,95515.16
2019-05-18T04:11:56.746Z,95518.10
2019-05-18T04:13:04.754Z,95518.10
2019-05-18T04:14:11.949Z,95519.40
2019-05-18T04:15:19.914Z,95517.77
2019-05-18T04:16:27.122Z,95518.58
2019-05-18T04:17:35.079Z,95520.36
2019-05-18T04:18:42.290Z,95528.97
2019-05-18T04:19:50.236Z,95525.07
2019-05-18T04:20:57.447Z,95526.70
2019-05-18T04:22:05.422Z,95528.48
2019-05-18T04:23:12.650Z,95528.48
2019-05-18T04:24:20.610Z,95525.07
2019-05-18T04:25:27.835Z,95529.45
2019-05-18T04:26:35.798Z,95529.45
2019-05-18T04:27:43.021Z,95530.27
2019-05-18T04:28:51.012Z,95524.11
2019-05-18T04:29:58.238Z,95530.60
2019-05-18T04:31:06.220Z,95528.97
2019-05-18T04:32:13.463Z,95531.08
2019-05-18T04:33:21.411Z,95531.22
2019-05-18T04:34:28.634Z,95534.30
2019-05-18T04:35:36.590Z,95529.92
2019-05-18T04:36:43.803Z,95532.52
2019-05-18T04:37:51.753Z,95532.52
2019-05-18T04:38:58.976Z,95531.08
2019-05-18T04:40:07.673Z,95530.12
2019-05-18T04:41:14.895Z,95524.93
2019-05-18T04:42:22.863Z,95533.84
2019-05-18T04:43:30.101Z,95532.89
2019-05-18T04:44:38.061Z,95536.64
2019-05-18T04:45:45.290Z,95536.98
2019-05-18T04:46:53.269Z,95533.42
2019-05-18T04:48:00.488Z,95537.66
2019-05-18T04:49:08.437Z,95537.52
2019-05-18T04:50:15.830Z,95539.16
2019-05-18T04:51:23.817Z,95538.67
2019-05-18T04:52:31.028Z,95546.33
2019-05-18T04:53:38.992Z,95537.24
2019-05-18T04:54:46.200Z,95539.19
2019-05-18T04:55:54.165Z,95542.59
2019-05-18T04:57:01.360Z,95541.98
2019-05-18T04:58:09.315Z,95540.20
2019-05-18T04:59:17.596Z,95541.84
2019-05-18T05:00:25.540Z,95544.30
2019-05-18T05:01:32.885Z,95542.86
2019-05-18T05:02:40.866Z,95544.02
2019-05-18T05:03:48.116Z,95545.17
2019-05-18T05:04:56.852Z,95547.63
2019-05-18T05:06:04.446Z,95543.08
2019-05-18T05:07:12.431Z,95545.09
2019-05-18T05:08:19.616Z,95544.13
2019-05-18T05:09:27.567Z,95549.19
2019-05-18T05:10:34.758Z,95545.83
2019-05-18T05:11:42.749Z,95544.39
2019-05-18T05:12:49.992Z,95546.81
2019-05-18T05:13:57.935Z,95544.07
2019-05-18T05:15:05.764Z,95543.93
2019-05-18T05:16:14.023Z,95545.56
2019-05-18T05:17:21.263Z,95542.01
2019-05-18T05:18:29.220Z,95545.42
2019-05-18T05:19:36.450Z,95548.70
2019-05-18T05:20:44.415Z,95540.42
2019-05-18T05:21:51.596Z,95546.10
2019-05-18T05:22:59.614Z,95543.50
2019-05-18T05:24:06.800Z,95543.65
2019-05-18T05:25:15.809Z,95537.77
2019-05-18T05:26:23.033Z,95543.93
2019-05-18T05:27:30.964Z,95538.88
2019-05-18T05:28:38.189Z,95539.36
2019-05-18T05:29:46.168Z,95542.30
2019-05-18T05:30:53.495Z,95540.03
2019-05-18T05:32:01.449Z,95547.20
2019-05-18T05:33:08.654Z,95540.91
2019-05-18T05:34:16.631Z,95538.65
2019-05-18T05:35:23.912Z,95539.47
2019-05-18T05:36:31.906Z,95542.41
2019-05-18T05:37:39.104Z,95541.92
2019-05-18T05:38:47.053Z,95546.64
2019-05-18T05:39:54.262Z,95538.50
2019-05-18T05:41:02.305Z,95544.18
2019-05-18T05:42:09.550Z,95543.84
2019-05-18T05:43:17.519Z,95547.26
2019-05-18T05:44:25.941Z,95547.26
2019-05-18T05:45:33.900Z,95546.30
2019-05-18T05:46:41.128Z,95545.81
2019-05-18T05:47:49.105Z,95552.95
2019-05-18T05:48:56.343Z,95547.62
2019-05-18T05:50:04.408Z,95551.86
2019-05-18T05:51:11.652Z,95552.20
2019-05-18T05:52:19.596Z,95555.13
2019-05-18T05:53:26.837Z,95556.14
2019-05-18T05:54:34.787Z,95560.38
2019-05-18T05:55:42.003Z,95560.72
2019-05-18T05:56:49.962Z,95557.98
2019-05-18T05:57:57.166Z,95558.63
2019-05-18T05:59:05.232Z,95562.72
2019-05-18T06:00:13.137Z,95564.69
2019-05-18T06:01:21.080Z,95564.06
2019-05-18T06:02:28.320Z,95562.14
2019-05-18T06:03:36.328Z,95566.72
2019-05-18T06:04:43.537Z,95568.36
2019-05-18T06:05:51.518Z,95566.40
2019-05-18T06:06:58.728Z,95568.38
2019-05-18T06:08:06.687Z,95574.58
2019-05-18T06:09:13.930Z,95567.80
2019-05-18T06:10:22.000Z,95575.28
2019-05-18T06:11:29.220Z,95572.39
2019-05-18T06:12:37.220Z,95573.41
2019-05-18T06:13:44.426Z,95567.91
2019-05-18T06:14:52.367Z,95571.52
2019-05-18T06:15:59.583Z,95577.22
2019-05-18T06:17:08.487Z,95570.09
2019-05-18T06:18:15.940Z,95571.59
2019-05-18T06:19:23.972Z,95574.86
2019-05-18T06:20:31.183Z,95569.84
2019-05-18T06:21:39.267Z,95566.73
2019-05-18T06:22:46.527Z,95564.66
2019-05-18T06:23:54.501Z,95565.81
2019-05-18T06:25:01.750Z,95568.61
2019-05-18T06:26:09.717Z,95569.28
2019-05-18T06:27:16.910Z,95569.13
2019-05-18T06:28:24.876Z,95571.08
2019-05-18T06:29:32.101Z,95571.08
2019-05-18T06:30:40.087Z,95567.88
2019-05-18T06:31:47.329Z,95565.61
2019-05-18T06:32:55.320Z,95568.88
2019-05-18T06:34:02.546Z,95569.55
2019-05-18T06:35:10.627Z,95568.92
2019-05-18T06:36:17.852Z,95571.38
2019-05-18T06:37:25.895Z,95568.59
2019-05-18T06:38:33.114Z,95570.09
2019-05-18T06:39:41.065Z,95570.42
2019-05-18T06:40:48.329Z,95572.73
2019-05-18T06:41:56.341Z,95569.65
2019-05-18T06:43:03.569Z,95572.44
2019-05-18T06:44:11.543Z,95569.69
2019-05-18T06:45:19.081Z,95575.38
2019-05-18T06:46:27.081Z,95577.84
2019-05-18T06:47:34.314Z,95574.13
2019-05-18T06:48:42.296Z,95575.95
2019-05-18T06:49:50.460Z,95582.45
2019-05-18T06:51:06.677Z,95579.22
2019-05-18T06:52:07.343Z,95575.84
2019-05-18T06:53:15.292Z,95582.53
2019-05-18T06:54:23.490Z,95575.73
2019-05-18T06:55:31.966Z,95569.03
2019-05-18T06:56:40.902Z,95572.64
2019-05-18T06:57:49.563Z,95580.00
2019-05-18T06:58:57.809Z,95577.59
2019-05-18T07:00:07.528Z,95576.44
2019-05-18T07:01:14.783Z,95576.28
2019-05-18T07:02:22.793Z,95572.90
2019-05-18T07:03:31.141Z,95580.08
2019-05-18T07:04:39.100Z,95575.53
2019-05-18T07:05:46.416Z,95579.59
2019-05-18T07:06:55.682Z,95577.98
2019-05-18T07:08:02.958Z,95577.84
2019-05-18T07:09:14.067Z,95577.20
2019-05-18T07:10:20.711Z,95581.29
2019-05-18T07:11:28.829Z,95584.08
2019-05-18T07:12:36.062Z,95585.05
2019-05-18T07:13:44.071Z,95579.20
2019-05-18T07:14:51.290Z,95582.80
2019-05-18T07:15:59.269Z,95584.80
2019-05-18T07:17:06.545Z,95584.50
2019-05-18T07:18:14.544Z,95577.47
2019-05-18T07:19:21.759Z,95581.55
2019-05-18T07:20:29.730Z,95578.31
2019-05-18T07:21:36.989Z,95577.01
2019-05-18T07:22:44.977Z,95576.38
2019-05-18T07:23:52.220Z,95573.61
2019-05-18T07:25:00.301Z,95573.61
2019-05-18T07:26:07.516Z,95575.73
2019-05-18T07:27:15.457Z,95571.83
2019-05-18T07:28:22.652Z,95571.19
2019-05-18T07:29:30.633Z,95570.22
2019-05-18T07:30:37.868Z,95565.30
2019-05-18T07:31:45.860Z,95566.78
2019-05-18T07:32:53.088Z,95569.57
2019-05-18T07:34:01.061Z,95560.62
2019-05-18T07:35:09.189Z,95565.86
2019-05-18T07:36:17.165Z,95563.73
2019-05-18T07:37:25.498Z,95566.84
2019-05-18T07:38:33.492Z,95564.42
2019-05-18T07:39:40.689Z,95559.38
2019-05-18T07:40:48.637Z,95559.86
2019-05-18T07:41:55.885Z,95565.09
2019-05-18T07:43:03.870Z,95561.53
2019-05-18T07:44:11.077Z,95562.66
2019-05-18T07:45:19.025Z,95554.38
2019-05-18T07:46:26.238Z,95557.78
2019-05-18T07:47:34.211Z,95554.55
2019-05-18T07:48:41.408Z,95554.08
2019-05-18T07:49:49.382Z,95556.34
2019-05-18T07:50:56.595Z,95554.56
2019-05-18T07:52:04.568Z,95558.97
2019-05-18T07:53:11.824Z,95557.87
2019-05-18T07:54:19.795Z,95559.31
2019-05-18T07:55:27.042Z,95558.34
2019-05-18T07:56:34.978Z,95557.20
2019-05-18T07:57:42.198Z,95550.03
2019-05-18T07:58:50.160Z,95558.03
2019-05-18T07:59:57.358Z,95548.06
2019-05-18T08:01:05.319Z,95552.14
2019-05-18T08:02:12.558Z,95552.80
2019-05-18T08:03:20.519Z,95555.42
2019-05-18T08:04:27.760Z,95555.39
2019-05-18T08:05:35.754Z,95558.02
2019-05-18T08:06:42.978Z,95559.16
2019-05-18T08:07:51.943Z,95559.14
2019-05-18T08:09:00.023Z,95559.64
2019-05-18T08:10:09.185Z,95561.11
2019-05-18T08:11:16.505Z,95566.80
2019-05-18T08:12:24.469Z,95562.06
2019-05-18T08:13:31.706Z,95560.28
2019-05-18T08:14:39.697Z,95562.05
2019-05-18T08:15:48.080Z,95559.27
2019-05-18T08:16:56.176Z,95556.17
2019-05-18T08:18:03.500Z,95556.95
2019-05-18T08:19:11.465Z,95552.70
2019-05-18T08:20:18.781Z,95552.22
2019-05-18T08:21:26.742Z,95557.31
2019-05-18T08:22:33.941Z,95559.44
2019-05-18T08:23:41.885Z,95559.77
2019-05-18T08:24:49.113Z,95559.59
2019-05-18T08:25:57.086Z,95554.99
2019-05-18T08:27:04.311Z,95554.83
2019-05-18T08:28:12.287Z,95549.93
2019-05-18T08:29:19.513Z,95548.45
2019-05-18T08:30:27.481Z,95549.76
2019-05-18T08:31:34.702Z,95551.72
2019-05-18T08:32:42.664Z,95547.59
2019-05-18T08:33:49.860Z,95549.39
2019-05-18T08:34:57.810Z,95551.34
2019-05-18T08:36:05.031Z,95546.57
2019-05-18T08:37:13.011Z,95548.36
2019-05-18T08:38:20.232Z,95538.88
2019-05-18T08:39:28.198Z,95544.59
2019-05-18T08:40:35.421Z,95541.77
2019-05-18T08:41:43.384Z,95540.13
2019-05-18T08:42:50.591Z,95539.63
2019-05-18T08:43:58.569Z,95540.89
2019-05-18T08:45:06.398Z,95537.62
2019-05-18T08:46:14.329Z,95539.08
2019-05-18T08:47:21.577Z,95537.28
2019-05-18T08:48:29.544Z,95533.02
2019-05-18T08:49:36.770Z,95534.78
2019-05-18T08:50:44.879Z,95530.84
2019-05-18T08:51:52.110Z,95531.97
2019-05-18T08:53:00.071Z,95529.80
2019-05-18T08:54:07.292Z,95528.98
2019-05-18T08:55:15.751Z,95533.50
2019-05-18T08:56:22.960Z,95529.38
2019-05-18T08:57:30.922Z,95531.78
2019-05-18T08:58:38.147Z,95533.22
2019-05-18T08:59:46.094Z,95525.31
2019-05-18T09:00:53.308Z,95525.61
2019-05-18T09:02:01.297Z,95531.14
2019-05-18T09:03:08.524Z,95529.46
2019-05-18T09:04:16.578Z,95525.02
2019-05-18T09:05:23.860Z,95525.63
2019-05-18T09:06:31.820Z,95527.70
2019-05-18T09:07:39.045Z,95529.48
2019-05-18T09:08:47.024Z,95536.31
2019-05-18T09:09:54.277Z,95542.48
2019-05-18T09:11:02.223Z,95540.33
2019-05-18T09:12:09.423Z,95538.39
2019-05-18T09:13:17.367Z,95547.70
2019-05-18T09:14:24.593Z,95544.20
2019-05-18T09:15:32.569Z,95537.63
2019-05-18T09:16:40.860Z,95537.77
2019-05-18T09:17:49.785Z,95542.66
2019-05-18T09:18:56.983Z,95540.16
2019-05-18T09:20:05.209Z,95542.75
2019-05-18T09:21:12.455Z,95537.16
2019-05-18T09:22:23.301Z,95543.67
2019-05-18T09:23:29.346Z,95540.17
2019-05-18T09:24:37.309Z,95537.69
2019-05-18T09:25:44.518Z,95542.08
2019-05-18T09:26:52.499Z,95537.48
2019-05-18T09:27:59.725Z,95533.48
2019-05-18T09:29:07.686Z,95535.75
2019-05-18T09:30:15.498Z,95539.47
2019-05-18T09:31:23.470Z,95536.28
2019-05-18T09:32:30.723Z,95534.44
2019-05-18T09:33:38.700Z,95533.58
2019-05-18T09:34:45.896Z,95530.39
2019-05-18T09:35:53.844Z,95526.73
2019-05-18T09:37:01.052Z,95523.57
2019-05-18T09:38:09.016Z,95523.34
2019-05-18T09:39:16.276Z,95525.93
2019-05-18T09:40:24.395Z,95524.44
2019-05-18T09:41:31.607Z,95523.55
2019-05-18T09:42:39.552Z,95534.17
2019-05-18T09:43:46.781Z,95528.07
2019-05-18T09:44:54.774Z,95525.40
2019-05-18T09:46:01.969Z,95527.95
2019-05-18T09:47:11.892Z,95527.09
2019-05-18T09:48:19.184Z,95526.83
2019-05-18T09:49:27.245Z,95527.77
2019-05-18T09:50:34.469Z,95525.91
2019-05-18T09:51:42.507Z,95527.67
2019-05-18T09:52:49.716Z,95527.27
2019-05-18T09:53:57.682Z,95530.84
2019-05-18T09:55:05.309Z,95529.48
2019-05-18T09:56:13.586Z,95524.97
2019-05-18T09:57:20.795Z,95520.97
2019-05-18T09:58:28.759Z,95527.02
2019-05-18T09:59:35.998Z,95529.69
2019-05-18T10:00:43.960Z,95521.88
2019-05-18T10:01:51.364Z,95517.35
2019-05-18T10:02:59.310Z,95526.80
2019-05-18T10:04:06.539Z,95524.22
2019-05-18T10:05:14.705Z,95522.16
2019-05-18T10:06:21.947Z,95521.09
2019-05-18T10:07:29.956Z,95521.81
2019-05-18T10:08:37.153Z,95524.20
2019-05-18T10:09:45.127Z,95526.55
2019-05-18T10:10:52.545Z,95522.34
2019-05-18T10:12:00.509Z,95530.27
2019-05-18T10:13:07.798Z,95524.28
2019-05-18T10:14:15.770Z,95528.25
2019-05-18T10:15:23.089Z,95522.23
2019-05-18T10:16:31.065Z,95521.44
2019-05-18T10:17:38.289Z,95516.73
2019-05-18T10:18:46.238Z,95520.20
2019-05-18T10:19:53.462Z,95518.42
2019-05-18T10:21:01.524Z,95517.94
2019-05-18T10:22:08.816Z,95517.79
2019-05-18T10:23:16.772Z,95521.44
2019-05-18T10:24:23.983Z,95507.84
2019-05-18T10:25:31.947Z,95507.04
2019-05-18T10:26:39.184Z,95511.84
2019-05-18T10:27:47.159Z,95503.44
2019-05-18T10:28:54.386Z,95506.88
2019-05-18T10:30:02.351Z,95506.52
2019-05-18T10:31:09.947Z,95500.12
2019-05-18T10:32:17.939Z,95503.91
2019-05-18T10:33:25.157Z,95499.64
2019-05-18T10:34:33.100Z,95497.84
2019-05-18T10:35:40.325Z,95499.69
2019-05-18T10:36:48.269Z,95500.72
2019-05-18T10:37:55.512Z,95505.66
2019-05-18T10:39:05.647Z,95497.36
2019-05-18T10:40:13.621Z,95505.68
2019-05-18T10:41:21.585Z,95500.21
2019-05-18T10:42:28.806Z,95497.65
2019-05-18T10:43:36.800Z,95497.75
2019-05-18T10:44:44.014Z,95497.66
2019-05-18T10:45:51.987Z,95495.23
2019-05-18T10:46:59.196Z,95484.06
2019-05-18T10:48:07.234Z,95491.67
2019-05-18T10:49:14.487Z,95495.09
2019-05-18T10:50:22.452Z,95488.70
2019-05-18T10:51:29.705Z,95486.38
2019-05-18T10:52:37.652Z,95489.31
2019-05-18T10:53:44.884Z,95487.19
2019-05-18T10:54:52.867Z,95489.52
2019-05-18T10:56:00.064Z,95485.26
2019-05-18T10:57:08.013Z,95479.48
2019-05-18T10:58:15.325Z,95483.23
2019-05-18T10:59:23.274Z,95488.87
2019-05-18T11:00:30.527Z,95483.41
2019-05-18T11:01:38.489Z,95481.07
2019-05-18T11:02:45.687Z,95476.81
2019-05-18T11:03:53.660Z,95475.69
2019-05-18T11:05:00.956Z,95476.13
2019-05-18T11:06:08.954Z,95479.04
2019-05-18T11:07:16.165Z,95478.84
2019-05-18T11:08:24.140Z,95475.42
2019-05-18T11:09:31.364Z,95472.24
2019-05-18T11:10:39.340Z,95474.37
2019-05-18T11:11:46.569Z,95476.77
2019-05-18T11:12:54.528Z,95476.52
2019-05-18T11:14:01.760Z,95477.42
2019-05-18T11:15:11.126Z,95474.03
2019-05-18T11:16:18.426Z,95469.00
2019-05-18T11:17:26.402Z,95476.73
2019-05-18T11:18:33.626Z,95471.20
2019-05-18T11:19:41.589Z,95467.21
2019-05-18T11:20:48.964Z,95463.80
2019-05-18T11:21:56.946Z,95462.21
2019-05-18T11:23:04.182Z,95455.06
2019-05-18T11:24:12.227Z,95463.53
2019-05-18T11:25:19.685Z,95464.88
2019-05-18T11:26:27.618Z,95457.25
2019-05-18T11:27:34.814Z,95454.02
2019-05-18T11:28:42.827Z,95452.66
2019-05-18T11:29:50.041Z,95447.60
2019-05-18T11:30:57.987Z,95450.92
2019-05-18T11:32:05.205Z,95456.66
2019-05-18T11:33:13.146Z,95445.44
2019-05-18T11:34:20.371Z,95449.32
2019-05-18T11:35:28.707Z,95453.03
2019-05-18T11:36:35.921Z,95455.38
2019-05-18T11:37:43.888Z,95452.19
2019-05-18T11:38:51.104Z,95449.46
2019-05-18T11:39:59.084Z,95450.19
2019-05-18T11:41:06.308Z,95447.70
2019-05-18T11:42:14.252Z,95448.95
2019-05-18T11:43:21.480Z,95450.19
2019-05-18T11:44:30.505Z,95448.51
2019-05-18T11:45:37.716Z,95440.98
2019-05-18T11:46:45.666Z,95446.73
2019-05-18T11:47:52.872Z,95445.33
2019-05-18T11:49:00.823Z,95448.13
2019-05-18T11:50:10.018Z,95447.22
2019-05-18T11:51:18.951Z,95446.27
2019-05-18T11:52:26.213Z,95442.87
2019-05-18T11:53:34.151Z,95441.63
2019-05-18T11:54:41.378Z,95445.60
2019-05-18T11:55:49.428Z,95445.86
2019-05-18T11:56:56.661Z,95450.94
2019-05-18T11:58:04.650Z,95445.09
2019-05-18T11:59:15.493Z,95441.63
2019-05-18T12:00:23.775Z,95446.92
2019-05-18T12:01:32.201Z,95443.17
2019-05-18T12:02:40.169Z,95437.58
2019-05-18T12:03:47.388Z,95436.55
2019-05-18T12:04:55.363Z,95439.49
2019-05-18T12:06:02.589Z,95435.05
2019-05-18T12:07:10.585Z,95443.58
2019-05-18T12:08:17.838Z,95439.38
2019-05-18T12:09:25.881Z,95437.55
2019-05-18T12:10:33.120Z,95438.58
2019-05-18T12:11:41.060Z,95441.89
2019-05-18T12:12:48.297Z,95438.83
2019-05-18T12:13:56.235Z,95433.61
2019-05-18T12:15:03.521Z,95432.61
2019-05-18T12:16:11.501Z,95435.84
2019-05-18T12:17:18.719Z,95425.61
2019-05-18T12:18:26.697Z,95433.77
2019-05-18T12:19:33.935Z,95428.41
2019-05-18T12:20:41.900Z,95432.38
2019-05-18T12:21:49.123Z,95434.21
2019-05-18T12:22:57.086Z,95428.50
2019-05-18T12:24:14.725Z,95428.34
2019-05-18T12:25:14.042Z,95423.52
2019-05-18T12:26:21.286Z,95427.19
2019-05-18T12:27:29.277Z,95425.14
2019-05-18T12:28:36.507Z,95428.64
2019-05-18T12:29:44.524Z,95427.98
2019-05-18T12:30:51.748Z,95425.23
2019-05-18T12:31:59.711Z,95426.79
2019-05-18T12:33:06.954Z,95421.72
2019-05-18T12:34:14.912Z,95419.04
2019-05-18T12:35:22.138Z,95418.16
2019-05-18T12:36:30.145Z,95420.66
2019-05-18T12:37:37.364Z,95422.83
2019-05-18T12:38:45.334Z,95420.77
2019-05-18T12:39:53.965Z,95422.16
2019-05-18T12:41:01.952Z,95422.82
2019-05-18T12:42:09.154Z,95416.20
2019-05-18T12:43:17.114Z,95420.77
2019-05-18T12:44:24.325Z,95422.94
2019-05-18T12:45:32.350Z,95419.84
2019-05-18T12:46:39.609Z,95426.69
2019-05-18T12:47:48.482Z,95422.13
2019-05-18T12:48:55.763Z,95422.64
2019-05-18T12:50:03.742Z,95420.47
2019-05-18T12:51:10.949Z,95416.94
2019-05-18T12:52:19.991Z,95413.92
2019-05-18T12:53:27.219Z,95415.65
2019-05-18T12:54:46.238Z,95419.19
2019-05-18T12:55:44.053Z,95417.72
2019-05-18T12:56:52.018Z,95417.67
2019-05-18T12:57:59.240Z,95413.92
2019-05-18T12:59:08.301Z,95412.52
2019-05-18T13:00:17.746Z,95411.94
2019-05-18T13:01:25.706Z,95410.61
2019-05-18T13:02:32.930Z,95407.45
2019-05-18T13:03:40.924Z,95412.01
2019-05-18T13:04:48.147Z,95408.62
2019-05-18T13:05:56.124Z,95408.77
2019-05-18T13:07:03.365Z,95406.20
2019-05-18T13:08:11.326Z,95409.43
2019-05-18T13:09:18.577Z,95411.70
2019-05-18T13:10:26.754Z,95405.37
2019-05-18T13:11:33.979Z,95404.13
2019-05-18T13:12:42.032Z,95407.73
2019-05-18T13:13:49.240Z,95399.91
2019-05-18T13:14:57.217Z,95396.12